• Join FlightAware (Why Join?)
  • Login
  • US Flag 
01:06AM EDT


 

Airport Tracker/Info


-or-


 

Live Flight TrackerFlight Track Log ✈ N237RB ✈ 09-Sep-2013 ✈ KAGC - KLXT

Flight Track Log - Related Links

Times and Time Zones

All times are in EDT time to prevent confusion due to time zone crossing. See the N237RB flight status page for this flight to view local times or setup timezone preferences in your user account.

Time Position Orientation Groundspeed Altitude Reporting Facility
EDT Latitude Longitude Course Direction KTS MPH feet Rate Location/Type
11:00PM 40.3384 -80.3871 270° West  Level Estimated
11:01PM 40.3359 -80.4523 261° West  Level Estimated
11:02PM 40.3316 -80.5174 265° West  Level FlightAware Approximate
11:03PM 40.3292 -80.5826 268° West  Level Estimated
11:04PM 40.3267 -80.6479 267° West  Level FlightAware Approximate
11:05PM 40.3242 -80.7131 267° West  Level FlightAware Approximate
11:06PM 40.3216 -80.7784 267° West  Level FlightAware Approximate
11:07PM 40.3190 -80.8436 267° West  Level FlightAware Approximate
11:08PM 40.3164 -80.9088 267° West  Level FlightAware Approximate
11:08PM 40.3153 -80.4958 267° West 158 182 11,900  Level Cleveland Center
11:09PM 40.3138 -80.9740 267° West  Level FlightAware Approximate
11:09PM 40.3111 -80.5531 265° West 158 182 12,600  Level Cleveland Center
11:10PM 40.3111 -81.0392 267° West  Level FlightAware Approximate
11:10PM 40.3089 -80.6158 267° West 163 188 13,200  Level Cleveland Center
11:11PM 40.3084 -81.1044 267° West  Level FlightAware Approximate
11:11PM 40.3069 -80.6731 267° West 163 188 13,900  Level Cleveland Center
11:12PM 40.3056 -81.1696 267° West  Level FlightAware Approximate
11:12PM 40.3047 -80.7328 267° West 163 188 14,600  Level Cleveland Center
11:13PM 40.3025 -80.7953 267° West 168 193 15,300 660 Climbing Cleveland Center
11:14PM 40.3003 -80.8581 267° West 168 193 16,000 300 Climbing Cleveland Center
11:15PM 40.2981 -80.9261 268° West 174 200 16,000  Level Cleveland Center
11:16PM 40.2936 -80.9994 265° West 197 227 16,000  Level Cleveland Center
11:17PM 40.2911 -81.0731 267° West 204 235 16,000  Level Cleveland Center
11:18PM 40.2889 -81.1464 268° West 209 241 16,000  Level Cleveland Center
11:19PM 40.2814 -81.2461 264° West 198 228 16,000  Level Indianapolis Center
11:20PM 40.2778 -81.3178 266° West 196 226 16,000  Level Indianapolis Center
11:21PM 40.2753 -81.3900 267° West 197 227 16,000  Level Indianapolis Center
11:22PM 40.2717 -81.4753 267° West 199 229 16,000  Level Indianapolis Center
11:23PM 40.2678 -81.5478 266° West 197 227 16,000  Level Indianapolis Center
11:24PM 40.2658 -81.6192 268° West 195 224 16,000  Level Indianapolis Center
11:25PM 40.2619 -81.6919 266° West 198 228 16,000  Level Indianapolis Center
11:26PM 40.2578 -81.7619 266° West 193 222 16,000  Level Indianapolis Center
11:27PM 40.2544 -81.8356 267° West 200 230 16,000  Level Indianapolis Center
11:28PM 40.2511 -81.9069 267° West 196 226 16,000  Level Indianapolis Center
11:29PM 40.2486 -81.9783 267° West 195 224 16,000  Level Indianapolis Center
11:30PM 40.2442 -82.0517 265° West 199 229 16,000  Level Indianapolis Center
11:31PM 40.2411 -82.1236 267° West 197 227 16,000  Level Indianapolis Center
11:32PM 40.2378 -82.1917 266° West 195 224 16,000  Level Indianapolis Center
11:33PM 40.2342 -82.2631 266° West 196 226 16,000  Level Indianapolis Center
11:34PM 40.2306 -82.3325 266° West 194 223 16,000  Level Indianapolis Center
11:35PM 40.2264 -82.4036 266° West 196 226 16,000  Level Indianapolis Center
11:36PM 40.2233 -82.4756 267° West 198 228 16,000  Level Indianapolis Center
11:37PM 40.2189 -82.5469 265° West 198 228 16,000  Level Indianapolis Center
11:38PM 40.2150 -82.6164 266° West 195 224 16,000  Level Indianapolis Center
11:39PM 40.2111 -82.6878 266° West 196 226 16,000  Level Indianapolis Center
11:40PM 40.2072 -82.7586 266° West 197 227 16,000  Level Indianapolis Center
11:41PM 40.2022 -82.8436 266° West 195 224 16,000  Level Indianapolis Center
11:42PM 40.1981 -82.9144 266° West 196 226 16,000  Level Indianapolis Center
11:43PM 40.1944 -82.9842 266° West 194 223 16,000  Level Indianapolis Center
11:44PM 40.1906 -83.0556 266° West 197 227 16,000  Level Indianapolis Center
11:45PM 40.1864 -83.1253 266° West 194 223 16,000  Level Indianapolis Center
11:46PM 40.1819 -83.1961 265° West 197 227 16,000  Level Indianapolis Center
11:47PM 40.1778 -83.2667 266° West 196 226 16,000  Level Indianapolis Center
11:48PM 40.1736 -83.3369 266° West 196 226 16,000  Level Indianapolis Center
11:49PM 40.1692 -83.4069 265° West 195 224 16,000  Level Indianapolis Center
11:50PM 40.1653 -83.4778 266° West 196 226 16,000  Level Indianapolis Center
11:51PM 40.1603 -83.5478 265° West 196 226 16,000  Level Indianapolis Center
11:52PM 40.1564 -83.6183 266° West 196 226 16,000  Level Indianapolis Center
11:53PM 40.1508 -83.7033 265° West 198 228 16,000  Level Indianapolis Center
11:54PM 40.1458 -83.7731 265° West 196 226 16,000  Level Indianapolis Center
11:55PM 40.1408 -83.8444 265° West 198 228 16,000  Level Indianapolis Center
11:56PM 40.1369 -83.9167 266° West 200 230 16,000  Level Indianapolis Center
11:57PM 40.1319 -83.9878 265° West 199 229 16,000  Level Indianapolis Center
11:58PM 40.1272 -84.0600 265° West 200 230 16,000  Level Indianapolis Center
11:59PM 40.1225 -84.1317 265° West 199 229 16,000  Level Indianapolis Center
12:00AM 40.1181 -84.2042 265° West 200 230 16,000  Level Indianapolis Center
12:01AM 40.1119 -84.2769 264° West 202 232 16,000  Level Indianapolis Center
12:02AM 40.1067 -84.3500 265° West 203 234 16,000  Level Indianapolis Center
12:03AM 40.1022 -84.4217 265° West 200 230 16,000  Level Indianapolis Center
12:04AM 40.0975 -84.4956 265° West 204 235 16,000  Level Indianapolis Center
12:06AM 40.0928 -84.5678 265° West 202 232 16,000  Level Indianapolis Center
12:07AM 40.0867 -84.6408 264° West 202 232 16,000  Level Indianapolis Center
12:08AM 40.0794 -84.7278 264° West 202 232 16,000  Level Indianapolis Center
12:09AM 40.0742 -84.8003 265° West 201 231 16,000  Level Indianapolis Center
12:10AM 40.0689 -84.8722 265° West 201 231 16,000  Level Indianapolis Center
12:11AM 40.0639 -84.9358 264° West 197 227 16,000  Level Indianapolis Center
12:12AM 40.0594 -85.0086 265° West 200 230 16,000  Level Indianapolis Center
12:13AM 40.0528 -85.0792 263° West 198 228 16,000  Level Indianapolis Center
12:14AM 40.0475 -85.1486 264° West 194 223 16,000  Level Indianapolis Center
12:15AM 40.0428 -85.2211 265° West 200 230 16,000  Level Indianapolis Center
12:16AM 40.0367 -85.2900 263° West 195 224 16,000  Level Indianapolis Center
12:17AM 40.0308 -85.3750 265° West 196 226 16,000  Level Indianapolis Center
12:18AM 40.0247 -85.4444 263° West 194 223 16,000  Level Indianapolis Center
12:19AM 40.0192 -85.5161 264° West 198 228 16,000  Level Indianapolis Center
12:20AM 40.0142 -85.5864 265° West 197 227 16,000  Level Indianapolis Center
12:21AM 40.0086 -85.6575 264° West 197 227 16,000  Level Indianapolis Center
12:22AM 40.0025 -85.7275 264° West 196 226 16,000  Level Indianapolis Center
12:23AM 39.9967 -85.7983 264° West 197 227 16,000  Level Indianapolis Center
12:24AM 39.9906 -85.8692 264° West 199 229 16,000  Level Indianapolis Center
12:25AM 39.9850 -85.9400 264° West 198 228 16,000  Level Indianapolis Center
12:26AM 39.9786 -86.0108 263° West 199 229 16,000  Level Indianapolis Center
12:27AM 39.9728 -86.0814 264° West 198 228 16,000  Level Indianapolis Center
12:28AM 39.9672 -86.1517 264° West 196 226 16,000  Level Indianapolis Center
12:29AM 39.9614 -86.2219 264° West 197 227 16,000  Level Indianapolis Center
12:30AM 39.9547 -86.2922 263° West 197 227 16,000  Level Indianapolis Center
12:31AM 39.9475 -86.3775 264° West 199 229 16,000  Level Indianapolis Center
12:32AM 39.9414 -86.4486 264° West 200 230 16,000  Level Indianapolis Center
12:33AM 39.9344 -86.5178 263° West 197 227 16,000  Level Indianapolis Center
12:34AM 39.9289 -86.5894 264° West 199 229 16,000  Level Indianapolis Center
12:35AM 39.9219 -86.6594 263° West 198 228 16,000  Level Indianapolis Center
12:36AM 39.9161 -86.7314 264° West 199 229 16,000  Level Indianapolis Center
12:37AM 39.9097 -86.8011 263° West 197 227 16,000  Level Indianapolis Center
12:38AM 39.9025 -86.8714 262° West 196 226 16,000  Level Indianapolis Center
12:39AM 39.8964 -86.9417 264° West 196 226 16,000  Level Indianapolis Center
12:40AM 39.8897 -87.0111 263° West 196 226 16,000  Level Indianapolis Center
12:41AM 39.8839 -87.0806 264° West 194 223 16,000  Level Indianapolis Center
12:42AM 39.8769 -87.1514 263° West 196 226 16,000  Level Indianapolis Center
12:43AM 39.8703 -87.2219 263° West 197 227 16,000  Level Indianapolis Center
12:44AM 39.8633 -87.2919 263° West 196 226 16,000  Level Indianapolis Center
12:45AM 39.8556 -87.3617 262° West 196 226 16,000  Level Indianapolis Center
12:46AM 39.8494 -87.4339 264° West 199 229 16,000  Level Indianapolis Center
12:47AM 39.8422 -87.5053 263° West 200 230 16,000  Level Indianapolis Center
12:48AM 39.8344 -87.5908 263° West 200 230 16,000  Level Indianapolis Center
12:49AM 39.8275 -87.6617 263° West 199 229 16,000  Level Indianapolis Center
12:50AM 39.8208 -87.7328 263° West 199 229 16,000  Level Indianapolis Center
12:51AM 39.8125 -87.8036 261° West 199 229 16,000  Level Indianapolis Center
12:52AM 39.8061 -87.8747 263° West 200 230 16,000  Level Indianapolis Center
12:53AM 39.7997 -87.9456 263° West 199 229 16,000  Level Indianapolis Center
12:54AM 39.7917 -88.0172 262° West 198 228 16,000  Level Indianapolis Center
12:55AM 39.7836 -88.0886 262° West 200 230 16,000 -120 Level Indianapolis Center
12:56AM 39.7792 -88.1289 262° West 203 234 15,900 -120 Descending Kansas City Center
12:57AM 39.7714 -88.2003 262° West 201 231 15,900  Level Kansas City Center
12:58AM 39.7642 -88.2797 263° West 201 231 15,900  Level Kansas City Center
12:59AM 39.7556 -88.3511 261° West 200 230 15,900  Level Kansas City Center
01:00AM 39.7494 -88.4222 264° West 199 229 15,900  Level Kansas City Center
01:01AM 39.7422 -88.4928 262° West 197 227 15,900  Level Kansas City Center
01:02AM 39.7347 -88.5642 262° West 199 229 16,000  Climbing Kansas City Center
01:03AM 39.7269 -88.6342 262° West 198 228 16,000  Level Kansas City Center
01:04AM 39.7200 -88.7047 263° West 197 227 16,000  Level Kansas City Center
01:05AM 39.7119 -88.7761 262° West 199 229 16,000  Level Kansas City Center
01:06AM 39.7050 -88.8461 263° West 198 228 16,000  Level Kansas City Center
01:07AM 39.6967 -88.9172 261° West 198 228 16,000  Level Kansas City Center
01:08AM 39.6889 -88.9886 262° West 199 229 16,100  Climbing Kansas City Center
01:09AM 39.6811 -89.0597 262° West 200 230 16,100  Level Kansas City Center
01:10AM 39.6728 -89.1300 261° West 197 227 16,100  Level Kansas City Center
01:11AM 39.6653 -89.2008 262° West 198 228 16,100 -60 Level Kansas City Center
01:12AM 39.6567 -89.2747 261° West 200 230 16,000 -60 Descending Kansas City Center
01:13AM 39.6497 -89.3447 263° West 198 228 16,000  Level Kansas City Center
01:14AM 39.6406 -89.4147 260° West 198 228 16,000  Level Kansas City Center
01:15AM 39.6331 -89.4856 262° West 198 228 16,000  Level Kansas City Center
01:16AM 39.6250 -89.5561 262° West 198 228 16,000  Level Kansas City Center
01:17AM 39.6158 -89.6256 260° West 197 227 16,000  Level Kansas City Center
01:18AM 39.6075 -89.6942 261° West 196 226 16,000  Level Kansas City Center
01:19AM 39.5997 -89.7650 262° West 196 226 16,000  Level Kansas City Center
01:20AM 39.5925 -89.8339 262° West 196 226 16,000  Level Kansas City Center
01:21AM 39.5836 -89.9042 261° West 196 226 16,000  Level Kansas City Center
01:22AM 39.5750 -89.9736 261° West 197 227 16,000  Level Kansas City Center
01:23AM 39.5669 -90.0422 261° West 195 224 16,000  Level Kansas City Center
01:24AM 39.5586 -90.1117 261° West 195 224 16,000  Level Kansas City Center
01:25AM 39.5500 -90.1806 261° West 195 224 16,000  Level Kansas City Center
01:26AM 39.5417 -90.2500 261° West 195 224 16,000  Level Kansas City Center
01:27AM 39.5336 -90.3181 261° West 194 223 16,000  Level Kansas City Center
01:28AM 39.5242 -90.3881 260° West 195 224 16,000  Level Kansas City Center
01:29AM 39.5144 -90.4700 261° West 195 224 16,000  Level Kansas City Center
01:30AM 39.5064 -90.5392 261° West 194 223 16,000  Level Kansas City Center
01:31AM 39.4969 -90.6092 260° West 197 227 16,000  Level Kansas City Center
01:32AM 39.4886 -90.6767 261° West 194 223 16,000  Level Kansas City Center
01:33AM 39.4797 -90.7447 260° West 193 222 16,100  Climbing Kansas City Center
01:34AM 39.4711 -90.8144 261° West 195 224 16,100  Level Kansas City Center
01:35AM 39.4628 -90.8833 261° West 195 224 16,100  Level Kansas City Center
01:36AM 39.4531 -90.9519 260° West 195 224 16,100  Level Kansas City Center
01:37AM 39.4439 -91.0219 260° West 197 227 16,100  Level Kansas City Center
01:38AM 39.4356 -91.0919 261° West 198 228 16,100  Level Kansas City Center
01:39AM 39.4261 -91.1608 260° West 197 227 16,100  Level Kansas City Center
01:40AM 39.4172 -91.2297 261° West 196 226 16,100 -60 Level Kansas City Center
01:41AM 39.4072 -91.2981 259° West 195 224 16,000 -60 Descending Kansas City Center
01:42AM 39.3986 -91.3686 261° West 198 228 16,000  Level Kansas City Center
01:43AM 39.3900 -91.4375 261° West 196 226 16,000  Level Kansas City Center
01:44AM 39.3800 -91.5069 259° West 197 227 16,000  Level Kansas City Center
01:45AM 39.3708 -91.5764 260° West 197 227 16,000  Level Kansas City Center
01:46AM 39.3611 -91.6467 260° West 198 228 16,000  Level Kansas City Center
01:47AM 39.3519 -91.7131 260° West 196 226 16,000  Level Kansas City Center
01:48AM 39.3439 -91.7817 261° West 195 224 16,000  Level Kansas City Center
01:49AM 39.3339 -91.8492 259° West 195 224 16,000  Level Kansas City Center
01:50AM 39.3247 -91.9167 260° West 193 222 16,000  Level Kansas City Center
01:51AM 39.3158 -91.9833 260° West 191 220 16,000  Level Kansas City Center
01:52AM 39.3044 -92.0644 260° West 192 221 16,000  Level Kansas City Center
01:53AM 39.2950 -92.1331 260° West 194 223 16,000  Level Kansas City Center
01:54AM 39.2856 -92.2008 260° West 194 223 16,000  Level Kansas City Center
01:55AM 39.2761 -92.2672 260° West 191 220 16,000  Level Kansas City Center
01:56AM 39.2664 -92.3339 259° West 191 220 16,000  Level Kansas City Center
01:57AM 39.2572 -92.4014 260° West 192 221 16,100  Climbing Kansas City Center
01:58AM 39.2483 -92.4636 260° West 191 220 16,100  Level Kansas City Center
01:59AM 39.2389 -92.5303 260° West 190 219 16,100  Level Kansas City Center
02:00AM 39.2286 -92.5983 259° West 192 221 16,100  Level Kansas City Center
02:01AM 39.2192 -92.6664 260° West 193 222 16,100  Level Kansas City Center
02:02AM 39.2083 -92.7347 258° West 190 219 16,100  Level Kansas City Center
02:03AM 39.1986 -92.8008 259° West 189 217 16,100  Level Kansas City Center
02:04AM 39.1897 -92.8683 260° West 192 221 16,100 -60 Level Kansas City Center
02:05AM 39.1800 -92.9319 259° West 187 215 16,000 -60 Descending Kansas City Center
02:06AM 39.1703 -92.9997 260° West 191 220 16,000 -120 Level Kansas City Center
02:07AM 39.1603 -93.0656 259° West 190 219 15,800 -480 Descending Kansas City Center
02:08AM 39.1500 -93.1344 259° West 191 220 15,100 -720 Descending Kansas City Center
02:09AM 39.1394 -93.2069 259° West 198 228 14,400 -720 Descending Kansas City Center
02:10AM 39.1292 -93.2792 260° West 202 232 13,700 -720 Descending Kansas City Center
02:11AM 39.1183 -93.3497 259° West 204 235 13,000 -720 Descending Kansas City Center
02:12AM 39.1072 -93.4250 259° West 201 231 12,300 -720 Descending Kansas City Center
02:13AM 39.0975 -93.4931 260° West 201 231 11,600 -780 Descending Kansas City Center
02:14AM 39.0858 -93.5681 259° West 194 223 10,800 -780 Descending Kansas City Center
02:15AM 39.0750 -93.6319 258° West 191 220 10,100 -720 Descending Kansas City Center
02:16AM 39.0664 -93.6944 260° West 187 215 9,400 -720 Descending Kansas City Center
02:17AM 39.0553 -93.7642 258° West 178 205 8,700 -720 Descending Kansas City Center
02:18AM 39.0522 -93.8233 266° West 176 203 8,000 -600 Descending Kansas City Center
02:19AM 39.0539 -93.8828 272° West 173 199 7,500 -540 Descending Kansas City Center
02:20AM 39.0539 -93.9372 270° West 161 185 7,000 -600 Descending Kansas City Center
02:21AM 39.0525 -93.9989 268° West 155 178 6,400 -540 Descending Kansas City Center
02:22AM 39.0514 -94.0519 268° West 155 178 6,000 -480 Descending Kansas City Center
02:23AM 39.0514 -94.1042 270° West 153 176 5,500 -540 Descending Kansas City Center